Time;durP1;ratioP1;P1;durP2;ratioP2;P2;SDS_P1;SDS_P2;PMS_P1;PMS_P2;Temp;Humidity;BMP_temperature;BMP_pressure;BME280_temperature;BME280_humidity;BME280_pressure;Samples;Min_cycle;Max_cycle;Signal;HPM_P1;HPM_P2
2021/12/27 00:01:09;;;;;;;28.07;15.17;;;0.10;99.90;;;;;;5082846;28;20044;-57
2021/12/27 00:03:34;;;;;;;24.63;14.13;;;0.10;99.90;;;;;;5060747;28;20072;-55
2021/12/27 00:06:00;;;;;;;27.27;16.43;;;0.10;99.90;;;;;;5064114;28;20044;-55
2021/12/27 00:08:26;;;;;;;24.63;15.17;;;0.00;99.90;;;;;;5076583;28;20036;-57
2021/12/27 00:10:52;;;;;;;24.53;16.30;;;0.00;99.90;;;;;;5064260;28;20063;-56
2021/12/27 00:13:18;;;;;;;29.40;16.90;;;0.00;99.90;;;;;;5058642;28;20193;-57
2021/12/27 00:15:44;;;;;;;24.40;14.77;;;0.00;99.90;;;;;;5074452;28;20115;-55
2021/12/27 00:18:11;;;;;;;25.13;14.43;;;0.00;99.90;;;;;;5060358;28;20126;-55
2021/12/27 00:20:37;;;;;;;24.13;14.83;;;0.10;99.90;;;;;;5074871;28;20111;-57
2021/12/27 00:23:03;;;;;;;26.27;14.80;;;0.00;99.90;;;;;;5054043;28;20036;-56
2021/12/27 00:25:29;;;;;;;26.13;13.83;;;0.10;99.90;;;;;;5069511;28;20063;-56
2021/12/27 00:27:55;;;;;;;24.33;14.33;;;0.10;99.90;;;;;;5063933;28;20048;-56
2021/12/27 00:30:22;;;;;;;26.03;15.83;;;0.10;99.90;;;;;;5042269;28;20190;-54
2021/12/27 00:32:48;;;;;;;25.77;14.37;;;0.10;99.90;;;;;;5078641;28;20203;-57
2021/12/27 00:35:15;;;;;;;24.40;15.67;;;0.10;99.90;;;;;;5031067;28;20040;-56
2021/12/27 00:37:42;;;;;;;25.07;15.50;;;0.10;99.90;;;;;;5054319;28;20040;-57
2021/12/27 00:40:11;;;;;;;23.00;14.47;;;0.10;99.90;;;;;;5055163;28;20147;-57
2021/12/27 00:42:37;;;;;;;26.53;14.33;;;0.10;99.90;;;;;;5057926;28;20055;-55
2021/12/27 00:45:04;;;;;;;23.30;14.00;;;0.20;99.90;;;;;;5075817;28;20061;-55
2021/12/27 00:47:30;;;;;;;24.27;15.67;;;0.20;99.90;;;;;;5062615;28;20056;-56
2021/12/27 00:49:55;;;;;;;26.23;15.30;;;0.20;99.90;;;;;;5071130;28;20090;-54
2021/12/27 00:52:21;;;;;;;25.30;15.47;;;0.20;99.90;;;;;;5074184;28;20046;-54
2021/12/27 00:54:47;;;;;;;25.97;14.27;;;0.30;99.90;;;;;;5075257;28;20035;-55
2021/12/27 00:57:12;;;;;;;24.23;15.33;;;0.20;99.90;;;;;;5080022;28;20038;-56
2021/12/27 00:59:38;;;;;;;23.27;14.43;;;0.30;99.90;;;;;;5075409;28;20172;-53
2021/12/27 01:02:04;;;;;;;23.07;14.57;;;0.30;99.90;;;;;;5078209;28;20112;-55
2021/12/27 01:04:30;;;;;;;29.70;16.47;;;0.30;99.90;;;;;;5084587;28;20128;-55
2021/12/27 01:06:56;;;;;;;23.80;15.67;;;0.30;99.90;;;;;;5078319;28;20292;-55
2021/12/27 01:17:32;;;;;;;25.53;15.83;;;0.30;99.90;;;;;;5076883;28;20048;-53
2021/12/27 01:19:58;;;;;;;27.80;16.10;;;0.40;99.90;;;;;;5074591;28;20043;-56
2021/12/27 01:22:24;;;;;;;28.93;15.80;;;0.40;99.90;;;;;;5072896;28;20429;-57
2021/12/27 01:24:49;;;;;;;23.50;14.73;;;0.30;99.90;;;;;;5073398;28;20037;-56
2021/12/27 01:27:15;;;;;;;23.37;14.27;;;0.30;99.90;;;;;;5050080;28;20052;-55
2021/12/27 01:29:41;;;;;;;24.20;14.93;;;0.30;99.90;;;;;;5056731;28;20037;-55
2021/12/27 01:32:06;;;;;;;27.73;17.10;;;0.40;99.90;;;;;;5075499;28;20119;-56
2021/12/27 01:34:33;;;;;;;24.73;16.20;;;0.40;99.90;;;;;;5078227;28;20382;-55
2021/12/27 01:36:59;;;;;;;24.87;15.20;;;0.40;99.90;;;;;;5051048;28;20037;-54
2021/12/27 01:39:25;;;;;;;25.63;15.20;;;0.40;99.90;;;;;;5073814;28;20035;-56
2021/12/27 01:41:52;;;;;;;26.80;16.87;;;0.40;99.90;;;;;;5070474;28;20040;-55
2021/12/27 01:44:18;;;;;;;26.50;16.63;;;0.40;99.90;;;;;;5071139;28;20078;-57
2021/12/27 01:46:44;;;;;;;26.17;15.73;;;0.40;99.90;;;;;;5076257;28;20446;-57
2021/12/27 01:49:09;;;;;;;27.40;17.27;;;0.40;99.90;;;;;;5082435;28;20066;-56
2021/12/27 01:51:38;;;;;;;28.98;16.92;;;0.40;99.90;;;;;;5079645;28;20067;-54
2021/12/27 01:54:05;;;;;;;27.93;16.43;;;0.40;99.90;;;;;;5076848;28;20036;-56
2021/12/27 01:56:31;;;;;;;29.50;16.83;;;0.50;99.90;;;;;;5053285;28;20087;-57
2021/12/27 01:58:58;;;;;;;24.47;14.83;;;0.40;99.90;;;;;;5077530;28;20483;-57
2021/12/27 02:01:25;;;;;;;31.77;18.20;;;0.50;99.90;;;;;;5076952;28;20036;-55
2021/12/27 02:03:53;;;;;;;31.27;17.53;;;0.50;99.90;;;;;;5073248;28;20495;-55
2021/12/27 02:06:19;;;;;;;30.63;17.53;;;0.40;99.90;;;;;;5058593;28;20055;-55
2021/12/27 02:08:46;;;;;;;26.87;15.77;;;0.40;99.90;;;;;;5068977;28;20040;-54
2021/12/27 02:11:14;;;;;;;26.00;16.70;;;0.30;99.90;;;;;;5063880;28;20141;-57
2021/12/27 02:13:45;;;;;;;25.57;16.50;;;0.40;99.90;;;;;;5057353;28;20055;-55
2021/12/27 02:16:13;;;;;;;25.73;15.67;;;0.40;99.90;;;;;;5071365;28;20055;-56
2021/12/27 02:18:40;;;;;;;26.73;16.33;;;0.30;99.90;;;;;;5068410;28;20094;-55
2021/12/27 02:21:06;;;;;;;24.83;15.40;;;0.30;99.90;;;;;;5052465;28;20505;-57
2021/12/27 02:23:32;;;;;;;29.53;18.33;;;0.30;99.90;;;;;;5077979;28;20341;-58
2021/12/27 02:25:58;;;;;;;30.63;17.83;;;0.30;99.90;;;;;;5048470;28;20406;-57
2021/12/27 02:28:24;;;;;;;27.03;15.87;;;0.30;99.90;;;;;;5068276;28;20376;-57
2021/12/27 02:30:52;;;;;;;28.23;16.63;;;0.30;99.90;;;;;;5076707;28;20487;-54
2021/12/27 02:33:18;;;;;;;29.10;16.93;;;0.30;99.90;;;;;;5058861;28;20139;-55
2021/12/27 02:35:50;;;;;;;29.07;17.67;;;0.40;99.90;;;;;;5076404;28;20144;-55
2021/12/27 02:38:25;;;;;;;26.37;16.23;;;0.40;99.90;;;;;;5059977;28;20103;-56
2021/12/27 02:40:51;;;;;;;28.63;17.20;;;0.40;99.90;;;;;;5071228;28;20063;-57
2021/12/27 02:43:20;;;;;;;31.63;18.57;;;0.40;99.90;;;;;;5075026;28;20055;-56
2021/12/27 02:45:48;;;;;;;26.47;16.53;;;0.40;99.90;;;;;;5057165;28;20051;-57
2021/12/27 02:48:20;;;;;;;25.83;15.97;;;0.40;99.90;;;;;;5080862;28;20704;-57
2021/12/27 02:50:47;;;;;;;27.92;16.63;;;0.40;99.90;;;;;;5053939;28;20292;-56
2021/12/27 02:53:14;;;;;;;30.90;17.87;;;0.40;99.90;;;;;;5080123;28;20049;-55
2021/12/27 02:55:40;;;;;;;25.47;17.00;;;0.40;99.90;;;;;;5057397;28;20506;-54
2021/12/27 02:58:06;;;;;;;29.63;17.80;;;0.40;99.90;;;;;;5075360;28;20040;-56
2021/12/27 03:00:51;;;;;;;24.20;15.87;;;0.40;99.90;;;;;;5074224;28;20066;-54
2021/12/27 03:03:18;;;;;;;29.73;17.87;;;0.40;99.90;;;;;;5061900;28;20051;-55
2021/12/27 03:05:46;;;;;;;27.03;17.83;;;0.40;99.90;;;;;;5060322;28;20534;-54
2021/12/27 03:08:14;;;;;;;29.67;16.57;;;0.40;99.90;;;;;;5072211;28;20047;-55
2021/12/27 03:10:47;;;;;;;30.67;17.57;;;0.40;99.90;;;;;;5076309;28;20066;-55
2021/12/27 03:13:27;;;;;;;30.45;18.80;;;0.40;99.90;;;;;;5079396;28;20048;-54
2021/12/27 03:15:56;;;;;;;26.97;17.47;;;0.40;99.90;;;;;;5080285;28;20290;-57
2021/12/27 03:18:22;;;;;;;28.50;18.30;;;0.40;99.90;;;;;;5077010;28;20052;-56
2021/12/27 03:20:50;;;;;;;30.50;18.47;;;0.40;99.90;;;;;;5078324;28;20036;-55
2021/12/27 03:23:16;;;;;;;27.90;17.03;;;0.40;99.90;;;;;;5080545;28;20035;-55
2021/12/27 03:25:42;;;;;;;28.13;18.27;;;0.30;99.90;;;;;;5076359;28;20498;-56
2021/12/27 03:28:08;;;;;;;29.73;18.63;;;0.40;99.90;;;;;;5081859;28;20039;-56
2021/12/27 03:30:34;;;;;;;27.67;17.53;;;0.40;99.90;;;;;;5076114;28;20056;-57
2021/12/27 03:33:02;;;;;;;27.70;17.33;;;0.50;99.90;;;;;;5062820;28;20320;-57
2021/12/27 03:35:34;;;;;;;27.33;17.30;;;0.50;99.90;;;;;;5074458;28;20078;-57
2021/12/27 03:38:02;;;;;;;35.40;19.13;;;0.50;99.90;;;;;;5080657;28;20055;-56
2021/12/27 03:40:28;;;;;;;25.80;17.43;;;0.50;99.90;;;;;;5074299;28;20032;-56
2021/12/27 03:42:55;;;;;;;28.43;18.37;;;0.50;99.90;;;;;;5080289;28;20846;-55
2021/12/27 03:45:26;;;;;;;34.07;18.80;;;0.50;99.90;;;;;;5061525;28;20291;-56
2021/12/27 03:47:52;;;;;;;30.00;18.70;;;0.50;99.90;;;;;;5082142;28;20047;-57
2021/12/27 03:50:18;;;;;;;30.80;18.33;;;0.50;99.90;;;;;;5077528;28;20051;-57
2021/12/27 03:52:44;;;;;;;28.53;17.80;;;0.50;99.90;;;;;;5082778;28;20117;-57
2021/12/27 03:55:10;;;;;;;28.83;17.97;;;0.50;99.90;;;;;;5059241;28;20122;-56
2021/12/27 03:57:39;;;;;;;30.10;18.40;;;0.50;99.90;;;;;;5069325;28;20506;-54
2021/12/27 04:02:46;;;;;;;30.85;19.25;;;0.60;99.90;;;;;;5074049;28;20041;-56
2021/12/27 04:05:12;;;;;;;31.10;19.77;;;0.60;99.90;;;;;;5077218;28;20529;-57
2021/12/27 04:07:40;;;;;;;35.13;20.27;;;0.60;99.90;;;;;;5079921;28;20036;-56
2021/12/27 04:10:08;;;;;;;27.15;16.83;;;0.60;99.90;;;;;;5082857;28;20028;-55
2021/12/27 04:12:35;;;;;;;35.70;20.47;;;0.60;99.90;;;;;;5079986;28;20036;-54
2021/12/27 04:15:02;;;;;;;29.38;18.38;;;0.60;99.90;;;;;;5081637;28;20072;-55
2021/12/27 04:17:28;;;;;;;30.67;18.83;;;0.60;99.90;;;;;;5074950;28;20105;-54
2021/12/27 04:19:54;;;;;;;27.17;17.35;;;0.60;99.90;;;;;;5075877;28;20040;-55
2021/12/27 04:22:20;;;;;;;29.02;17.75;;;0.60;99.90;;;;;;5053586;28;20033;-54
2021/12/27 04:24:46;;;;;;;30.87;19.40;;;0.60;99.90;;;;;;5061946;28;20123;-57
2021/12/27 04:27:11;;;;;;;34.00;19.75;;;0.60;99.90;;;;;;5080569;28;20046;-54
2021/12/27 04:29:37;;;;;;;29.48;18.80;;;0.60;99.90;;;;;;5075329;28;20036;-55
2021/12/27 04:32:03;;;;;;;30.50;18.77;;;0.70;99.90;;;;;;5066735;28;20506;-53
2021/12/27 04:34:29;;;;;;;30.52;17.92;;;0.70;99.90;;;;;;5027132;28;20040;-55
2021/12/27 04:36:55;;;;;;;36.17;20.23;;;0.70;99.90;;;;;;5082354;28;20438;-54
2021/12/27 04:39:21;;;;;;;31.47;19.80;;;0.70;99.90;;;;;;5078022;28;20209;-57
2021/12/27 04:41:48;;;;;;;29.48;18.40;;;0.70;99.90;;;;;;5075191;28;20032;-54
2021/12/27 04:44:14;;;;;;;34.70;20.52;;;0.70;99.90;;;;;;5076610;28;20097;-54
2021/12/27 04:46:40;;;;;;;35.78;21.58;;;0.70;99.90;;;;;;5059554;28;20510;-54
2021/12/27 04:49:06;;;;;;;31.65;19.05;;;0.70;99.90;;;;;;5078359;28;20036;-56
2021/12/27 04:51:32;;;;;;;33.47;20.92;;;0.70;99.90;;;;;;5077119;28;20024;-55
2021/12/27 04:53:57;;;;;;;40.38;21.98;;;0.70;99.90;;;;;;5082497;28;20036;-55
2021/12/27 04:56:23;;;;;;;38.35;22.65;;;0.70;99.90;;;;;;5080114;28;20396;-54
2021/12/27 04:58:50;;;;;;;35.33;21.17;;;0.70;99.90;;;;;;5063055;28;20048;-55
2021/12/27 05:01:16;;;;;;;37.20;22.38;;;0.70;99.90;;;;;;5072091;28;20067;-57
2021/12/27 05:03:42;;;;;;;37.03;20.95;;;0.70;99.90;;;;;;5067928;28;20040;-57
2021/12/27 05:06:08;;;;;;;39.60;23.35;;;0.70;99.90;;;;;;5064940;28;20097;-54
2021/12/27 05:08:34;;;;;;;36.55;21.92;;;0.70;99.90;;;;;;5079495;28;20083;-57
2021/12/27 05:11:00;;;;;;;35.50;22.48;;;0.70;99.90;;;;;;5077007;28;20036;-55
2021/12/27 05:13:26;;;;;;;40.08;23.70;;;0.70;99.90;;;;;;5078786;28;20044;-57
2021/12/27 05:15:52;;;;;;;36.70;22.50;;;0.70;99.90;;;;;;5055814;28;20082;-56
2021/12/27 05:18:18;;;;;;;36.50;21.90;;;0.70;99.90;;;;;;5077150;28;20221;-57
2021/12/27 05:20:44;;;;;;;41.47;23.60;;;0.70;99.90;;;;;;5054947;28;20036;-56
2021/12/27 05:23:10;;;;;;;34.65;21.63;;;0.70;99.90;;;;;;5077840;28;20044;-57
2021/12/27 05:25:35;;;;;;;37.53;23.38;;;0.70;99.90;;;;;;5097266;22;20047;-61
2021/12/27 05:28:01;;;;;;;36.42;24.30;;;0.70;99.90;;;;;;5076443;28;20101;-61
2021/12/27 05:30:27;;;;;;;34.45;21.60;;;0.70;99.90;;;;;;5076654;28;20044;-62
2021/12/27 05:32:53;;;;;;;41.40;23.60;;;0.70;99.90;;;;;;5054766;28;20283;-61
2021/12/27 05:35:21;;;;;;;39.97;24.15;;;0.70;99.90;;;;;;5046435;28;20048;-64
2021/12/27 05:37:47;;;;;;;41.10;25.20;;;0.70;99.90;;;;;;5062146;28;20075;-63
2021/12/27 05:40:18;;;;;;;41.00;24.55;;;0.70;99.90;;;;;;5054343;28;20461;-64
2021/12/27 05:42:45;;;;;;;39.75;24.25;;;0.70;99.90;;;;;;5049357;28;20048;-63
2021/12/27 05:45:11;;;;;;;39.47;23.45;;;0.70;99.90;;;;;;5058322;28;20134;-63
2021/12/27 05:47:36;;;;;;;38.33;23.15;;;0.70;99.90;;;;;;5070318;28;20451;-63
2021/12/27 05:50:04;;;;;;;39.80;23.15;;;0.70;99.90;;;;;;5044192;28;20051;-63
2021/12/27 05:52:30;;;;;;;38.17;23.52;;;0.70;99.90;;;;;;5059361;28;20032;-64
2021/12/27 05:54:56;;;;;;;40.03;23.10;;;0.70;99.90;;;;;;5060507;28;20035;-63
2021/12/27 05:57:22;;;;;;;39.63;23.77;;;0.70;99.90;;;;;;5057019;28;20046;-64
2021/12/27 05:59:48;;;;;;;40.08;23.85;;;0.70;99.90;;;;;;5054292;28;20449;-63
2021/12/27 06:02:14;;;;;;;39.55;23.92;;;0.70;99.90;;;;;;5045358;28;20122;-63
2021/12/27 06:04:40;;;;;;;41.42;22.83;;;0.70;99.90;;;;;;5056358;28;20039;-63
2021/12/27 06:07:06;;;;;;;45.42;24.08;;;0.70;99.90;;;;;;5042125;28;20776;-64
2021/12/27 06:09:32;;;;;;;41.70;23.35;;;0.70;99.90;;;;;;5076624;28;20616;-63
2021/12/27 06:11:57;;;;;;;36.83;22.50;;;0.70;99.90;;;;;;5046402;28;20127;-63
2021/12/27 06:14:23;;;;;;;41.60;21.70;;;0.70;99.90;;;;;;5042894;28;20042;-64
2021/12/27 06:16:49;;;;;;;47.58;24.05;;;0.80;99.90;;;;;;5062171;28;20115;-62
2021/12/27 06:19:14;;;;;;;44.45;23.38;;;0.80;99.90;;;;;;5059736;28;20032;-62
2021/12/27 06:21:40;;;;;;;43.33;23.50;;;0.80;99.90;;;;;;5065012;28;20182;-61
2021/12/27 06:24:06;;;;;;;41.55;21.98;;;0.80;99.90;;;;;;5038897;28;20032;-63
2021/12/27 06:26:32;;;;;;;51.38;26.60;;;0.80;99.90;;;;;;5059748;28;20032;-64
2021/12/27 06:28:57;;;;;;;49.60;27.30;;;0.80;99.90;;;;;;5054437;28;20441;-64
2021/12/27 06:31:23;;;;;;;41.53;22.88;;;0.80;99.90;;;;;;5040670;28;20109;-63
2021/12/27 06:33:49;;;;;;;48.17;24.15;;;0.80;99.90;;;;;;5060344;28;20494;-62
2021/12/27 06:36:15;;;;;;;50.03;25.05;;;0.80;99.90;;;;;;5062839;28;20035;-64
2021/12/27 06:38:41;;;;;;;46.70;24.77;;;0.80;99.90;;;;;;5067812;28;20059;-64
2021/12/27 06:41:07;;;;;;;47.88;25.25;;;0.90;99.90;;;;;;5043531;28;20043;-64
2021/12/27 06:43:32;;;;;;;51.05;24.48;;;0.80;99.90;;;;;;5051430;28;20044;-63
2021/12/27 06:45:59;;;;;;;45.55;23.45;;;0.90;99.90;;;;;;5058967;28;20046;-63
2021/12/27 06:48:25;;;;;;;47.03;23.23;;;0.90;99.90;;;;;;5063303;28;20127;-63
2021/12/27 06:50:51;;;;;;;49.47;25.10;;;0.80;99.90;;;;;;5061653;28;20441;-64
2021/12/27 06:53:17;;;;;;;43.05;23.63;;;0.90;99.90;;;;;;5040097;28;20426;-62
2021/12/27 06:55:44;;;;;;;47.20;23.95;;;0.90;99.90;;;;;;5044380;28;20231;-63
2021/12/27 06:58:11;;;;;;;45.92;24.60;;;0.90;99.90;;;;;;5063652;28;20048;-64
2021/12/27 07:00:36;;;;;;;51.33;25.63;;;0.90;99.90;;;;;;5057498;28;20372;-63
2021/12/27 07:03:02;;;;;;;48.05;24.15;;;0.90;99.90;;;;;;5044337;28;20043;-62
2021/12/27 07:05:28;;;;;;;51.67;23.85;;;0.90;99.90;;;;;;5027736;28;20052;-64
2021/12/27 07:07:53;;;;;;;48.10;24.92;;;0.90;99.90;;;;;;5057549;28;20048;-62
2021/12/27 07:10:21;;;;;;;50.75;26.95;;;1.00;99.90;;;;;;5058987;28;20348;-63
2021/12/27 07:12:46;;;;;;;52.78;26.85;;;1.00;99.90;;;;;;5055494;28;20047;-63
2021/12/27 07:15:12;;;;;;;49.95;25.60;;;0.90;99.90;;;;;;5058014;28;20413;-63
2021/12/27 07:17:38;;;;;;;57.88;28.08;;;0.90;99.90;;;;;;5040884;28;20039;-64
2021/12/27 07:20:04;;;;;;;59.67;28.65;;;0.90;99.90;;;;;;5056093;28;20040;-64
2021/12/27 07:22:30;;;;;;;54.83;29.80;;;0.90;99.90;;;;;;5057671;28;20385;-62
2021/12/27 07:24:56;;;;;;;57.63;28.92;;;0.90;99.90;;;;;;5059650;28;20166;-63
2021/12/27 07:27:22;;;;;;;59.03;27.95;;;0.90;99.90;;;;;;5035826;28;20056;-63
2021/12/27 07:29:48;;;;;;;67.35;31.20;;;0.90;99.90;;;;;;5053990;28;22434;-63
2021/12/27 07:32:14;;;;;;;57.10;28.75;;;0.90;99.90;;;;;;5043494;28;20434;-64
2021/12/27 07:34:46;;;;;;;57.58;28.13;;;0.90;99.90;;;;;;5041048;28;20040;-63
2021/12/27 07:37:12;;;;;;;62.47;28.52;;;0.90;99.90;;;;;;5045649;28;20048;-63
2021/12/27 07:39:38;;;;;;;65.55;30.60;;;0.90;99.90;;;;;;5061267;28;20108;-63
2021/12/27 07:42:07;;;;;;;60.67;28.42;;;0.90;99.90;;;;;;5043185;28;20081;-63
2021/12/27 07:44:33;;;;;;;64.00;29.80;;;0.90;99.90;;;;;;5061180;28;20121;-63
2021/12/27 07:46:58;;;;;;;63.13;31.38;;;0.90;99.90;;;;;;5038022;28;20044;-62
2021/12/27 07:49:24;;;;;;;56.35;26.77;;;0.90;99.90;;;;;;5036192;28;20043;-63
2021/12/27 07:51:50;;;;;;;76.18;31.77;;;0.90;99.90;;;;;;5055712;28;20055;-62
2021/12/27 07:54:16;;;;;;;60.97;30.45;;;1.00;99.90;;;;;;5038590;28;20161;-64
2021/12/27 07:56:42;;;;;;;73.47;30.52;;;1.00;99.90;;;;;;5059361;28;20058;-63
2021/12/27 07:59:08;;;;;;;84.60;35.88;;;1.00;99.90;;;;;;5045054;28;20040;-63
2021/12/27 08:01:35;;;;;;;63.95;31.38;;;1.00;99.90;;;;;;5044401;28;20372;-64
2021/12/27 08:04:02;;;;;;;73.80;29.63;;;1.00;99.90;;;;;;5061774;28;20140;-62
2021/12/27 08:06:28;;;;;;;68.95;32.22;;;1.00;99.90;;;;;;5047970;28;20181;-64
2021/12/27 08:08:54;;;;;;;67.03;31.30;;;1.00;99.90;;;;;;5059703;28;20503;-63
2021/12/27 08:11:20;;;;;;;67.15;30.13;;;1.00;99.90;;;;;;5059288;28;20078;-63
2021/12/27 08:13:46;;;;;;;67.38;31.17;;;1.10;99.90;;;;;;5045708;28;20119;-64
2021/12/27 08:16:12;;;;;;;70.55;30.95;;;1.10;99.90;;;;;;5048316;28;20043;-64
2021/12/27 08:18:41;;;;;;;81.85;32.10;;;1.10;99.90;;;;;;5052410;28;20084;-63
2021/12/27 08:21:07;;;;;;;71.55;31.02;;;1.10;99.90;;;;;;5046086;28;20036;-63
2021/12/27 08:23:33;;;;;;;67.85;29.90;;;1.10;99.90;;;;;;5057244;28;20029;-63
2021/12/27 08:25:58;;;;;;;74.05;30.27;;;1.10;99.90;;;;;;5064561;28;20036;-64
2021/12/27 08:28:24;;;;;;;82.95;33.28;;;1.10;99.90;;;;;;5047201;28;20044;-61
2021/12/27 08:30:50;;;;;;;70.53;30.30;;;1.10;99.90;;;;;;5043524;28;20123;-62
2021/12/27 08:33:16;;;;;;;73.47;29.75;;;1.20;99.90;;;;;;5064781;28;20043;-62
2021/12/27 08:35:42;;;;;;;69.90;30.77;;;1.20;99.90;;;;;;5061424;28;20515;-63
2021/12/27 08:38:08;;;;;;;79.75;33.65;;;1.20;99.90;;;;;;5065892;28;20132;-62
2021/12/27 08:40:33;;;;;;;72.30;31.73;;;1.20;99.90;;;;;;5054063;28;20542;-61
2021/12/27 08:42:59;;;;;;;92.82;35.83;;;1.30;99.90;;;;;;5048683;28;20127;-60
2021/12/27 08:45:25;;;;;;;90.90;34.58;;;1.30;99.90;;;;;;5053114;28;20052;-61
2021/12/27 08:47:51;;;;;;;86.07;31.90;;;1.30;99.90;;;;;;5054144;28;20044;-61
2021/12/27 08:50:17;;;;;;;78.55;31.80;;;1.30;99.90;;;;;;5047519;28;20051;-63
2021/12/27 08:52:45;;;;;;;75.13;31.35;;;1.40;99.90;;;;;;5060774;28;20069;-63
2021/12/27 08:55:11;;;;;;;84.38;35.40;;;1.40;99.90;;;;;;5062208;28;20067;-63
2021/12/27 08:57:38;;;;;;;91.25;34.92;;;1.40;99.90;;;;;;5057642;28;20514;-62
2021/12/27 09:00:07;;;;;;;73.20;32.08;;;1.40;99.90;;;;;;5056253;28;20086;-63
2021/12/27 09:02:33;;;;;;;75.95;31.55;;;1.40;99.90;;;;;;5041230;28;20301;-61
2021/12/27 09:04:59;;;;;;;83.03;33.60;;;1.50;99.90;;;;;;5058234;28;20958;-64
2021/12/27 09:07:25;;;;;;;107.13;37.22;;;1.50;99.90;;;;;;5059914;28;20442;-63
2021/12/27 09:09:51;;;;;;;83.35;30.60;;;1.50;99.90;;;;;;5075051;28;20110;-62
2021/12/27 09:12:17;;;;;;;106.78;36.53;;;1.50;99.90;;;;;;5057322;28;20028;-62
2021/12/27 09:14:43;;;;;;;99.05;36.13;;;1.50;99.90;;;;;;5060530;28;20032;-63
2021/12/27 09:17:09;;;;;;;86.07;31.63;;;1.50;99.90;;;;;;5059448;28;20037;-62
2021/12/27 09:19:35;;;;;;;87.70;34.35;;;1.50;99.90;;;;;;5064485;28;20044;-64
2021/12/27 09:22:01;;;;;;;78.82;31.77;;;1.50;99.90;;;;;;5043144;28;20028;-64
2021/12/27 09:24:28;;;;;;;84.32;32.03;;;1.50;99.90;;;;;;5032301;28;20028;-64
2021/12/27 09:26:55;;;;;;;89.78;33.83;;;1.60;99.90;;;;;;5062817;28;20060;-64
2021/12/27 09:29:21;;;;;;;80.65;32.03;;;1.60;99.90;;;;;;5044470;28;20068;-62
2021/12/27 09:31:47;;;;;;;86.60;33.67;;;1.60;99.90;;;;;;5056507;28;20039;-63
2021/12/27 09:34:12;;;;;;;112.07;39.13;;;1.60;99.90;;;;;;5055808;28;20044;-62
2021/12/27 09:36:39;;;;;;;86.22;34.78;;;1.60;99.90;;;;;;5036838;28;20426;-62
2021/12/27 09:39:05;;;;;;;100.68;35.30;;;1.60;99.90;;;;;;5032535;28;20047;-62
2021/12/27 09:41:31;;;;;;;87.03;32.72;;;1.60;99.90;;;;;;5022329;28;20055;-64
2021/12/27 09:43:56;;;;;;;78.22;31.33;;;1.60;99.90;;;;;;5050401;28;20036;-64
2021/12/27 09:46:23;;;;;;;80.22;33.03;;;1.70;99.90;;;;;;5060986;28;20122;-64
2021/12/27 09:48:51;;;;;;;77.78;30.77;;;1.70;99.90;;;;;;5057842;28;20042;-63
2021/12/27 09:51:17;;;;;;;71.70;30.42;;;1.70;99.90;;;;;;5043285;28;20071;-63
2021/12/27 09:53:44;;;;;;;74.68;30.63;;;1.70;99.90;;;;;;5048971;28;20044;-62
2021/12/27 09:56:11;;;;;;;67.30;28.92;;;1.70;99.90;;;;;;5058400;28;20122;-64
2021/12/27 09:58:38;;;;;;;78.75;29.63;;;1.80;99.90;;;;;;5058198;28;20032;-62
2021/12/27 10:01:06;;;;;;;73.05;30.70;;;1.80;99.90;;;;;;5062094;28;20173;-63
2021/12/27 10:03:46;;;;;;;62.55;27.88;;;1.80;99.90;;;;;;5037043;28;20166;-64
2021/12/27 10:06:14;;;;;;;91.68;36.83;;;1.80;99.90;;;;;;5068223;28;20048;-64
2021/12/27 10:08:43;;;;;;;61.65;28.77;;;1.80;99.90;;;;;;5054301;28;20067;-64
2021/12/27 10:11:16;;;;;;;78.50;30.40;;;1.80;99.90;;;;;;5064877;28;20075;-64
2021/12/27 10:14:00;;;;;;;74.43;30.85;;;1.80;99.90;;;;;;5055719;28;20553;-63
2021/12/27 10:16:28;;;;;;;68.05;30.75;;;1.80;99.90;;;;;;5059776;28;20458;-64
2021/12/27 10:18:59;;;;;;;75.43;30.23;;;1.90;99.90;;;;;;5051518;28;20476;-62
2021/12/27 10:21:25;;;;;;;64.78;31.70;;;1.90;99.90;;;;;;5066252;28;20032;-63
2021/12/27 10:24:13;;;;;;;77.05;29.02;;;1.90;99.90;;;;;;5047737;28;20032;-63
2021/12/27 10:26:40;;;;;;;67.80;28.95;;;1.90;99.90;;;;;;5061013;28;20047;-61
2021/12/27 10:29:11;;;;;;;75.78;29.88;;;2.00;99.90;;;;;;5056859;28;20052;-63
2021/12/27 10:31:52;;;;;;;68.30;28.73;;;2.00;99.90;;;;;;5054992;28;20043;-64
2021/12/27 10:34:19;;;;;;;82.35;31.52;;;2.00;99.90;;;;;;5061432;28;20506;-63
2021/12/27 10:37:06;;;;;;;77.80;30.40;;;2.00;99.90;;;;;;5057871;28;20192;-63
2021/12/27 10:40:02;;;;;;;81.05;33.85;;;2.00;99.90;;;;;;5058608;28;20046;-64
2021/12/27 10:42:40;;;;;;;74.50;30.30;;;2.10;99.90;;;;;;5046664;28;20071;-63
2021/12/27 10:45:19;;;;;;;74.35;29.85;;;2.10;99.90;;;;;;5035705;28;20653;-61
2021/12/27 10:47:57;;;;;;;79.25;30.90;;;2.10;99.90;;;;;;5043970;28;20059;-63
2021/12/27 10:50:31;;;;;;;66.50;28.60;;;2.20;99.90;;;;;;5061420;28;20383;-63
2021/12/27 10:52:56;;;;;;;78.35;33.90;;;2.30;99.90;;;;;;5068277;28;20487;-64
2021/12/27 10:55:27;;;;;;;113.95;38.55;;;2.30;99.90;;;;;;5055985;28;20059;-63
2021/12/27 10:58:06;;;;;;;73.15;32.88;;;2.30;99.90;;;;;;5039610;28;20075;-63
2021/12/27 11:00:32;;;;;;;107.72;35.90;;;2.30;99.90;;;;;;5057838;28;20086;-62
2021/12/27 11:03:02;;;;;;;80.78;31.77;;;2.30;99.90;;;;;;5037360;28;20032;-63
2021/12/27 11:05:34;;;;;;;82.35;34.13;;;2.30;99.90;;;;;;5057898;28;20084;-64
2021/12/27 11:08:03;;;;;;;229.77;49.95;;;2.30;99.90;;;;;;5060554;28;20032;-64
2021/12/27 11:10:31;;;;;;;177.57;41.90;;;2.30;99.90;;;;;;5042556;28;20040;-63
2021/12/27 11:13:00;;;;;;;269.27;52.05;;;2.30;99.90;;;;;;5054268;28;20071;-63
2021/12/27 11:15:30;;;;;;;159.45;41.40;;;2.40;99.90;;;;;;5057320;28;20054;-64
2021/12/27 11:17:56;;;;;;;101.90;35.22;;;2.40;99.90;;;;;;5040242;28;20410;-63
2021/12/27 11:20:23;;;;;;;80.50;31.27;;;2.40;99.90;;;;;;5062748;28;20402;-63
2021/12/27 11:22:53;;;;;;;89.45;32.03;;;2.40;99.90;;;;;;5067325;28;20051;-62
2021/12/27 11:25:36;;;;;;;86.35;31.20;;;2.40;99.90;;;;;;5071059;22;20041;-53
2021/12/27 11:28:23;;;;;;;132.63;37.50;;;2.40;99.90;;;;;;5039368;28;20477;-54
2021/12/27 11:30:49;;;;;;;80.35;30.80;;;2.30;99.90;;;;;;5019014;28;20990;-53
2021/12/27 11:33:16;;;;;;;78.82;31.23;;;2.40;99.90;;;;;;5059684;28;20962;-50
2021/12/27 11:35:51;;;;;;;74.43;30.67;;;2.40;99.90;;;;;;5040552;28;20558;-50
2021/12/27 11:38:38;;;;;;;81.57;32.40;;;2.40;99.90;;;;;;5057169;28;20037;-51
2021/12/27 11:41:23;;;;;;;83.55;33.40;;;2.40;99.90;;;;;;5053403;28;20037;-53
2021/12/27 11:44:12;;;;;;;88.60;35.17;;;2.50;99.90;;;;;;5072826;28;20082;-50
2021/12/27 11:46:46;;;;;;;80.18;30.50;;;2.50;99.90;;;;;;5041325;28;20203;-52
2021/12/27 11:49:13;;;;;;;87.53;33.35;;;2.50;99.90;;;;;;5058522;28;20036;-53
2021/12/27 11:51:40;;;;;;;97.55;35.08;;;2.50;99.90;;;;;;5056730;28;20041;-50
2021/12/27 11:54:30;;;;;;;79.57;30.27;;;2.60;99.90;;;;;;5055098;28;20071;-54
2021/12/27 11:56:57;;;;;;;81.07;31.00;;;2.70;99.90;;;;;;5035073;28;20330;-54
2021/12/27 11:59:26;;;;;;;81.20;30.80;;;2.80;99.90;;;;;;5039421;28;20040;-55
2021/12/27 12:02:00;;;;;;;90.28;31.92;;;2.90;99.90;;;;;;5034758;28;20044;-56
2021/12/27 12:04:58;;;;;;;92.07;34.55;;;2.90;99.90;;;;;;5031178;28;20093;-51
2021/12/27 12:07:33;;;;;;;84.15;31.35;;;3.00;99.90;;;;;;5026667;28;20064;-52
2021/12/27 12:10:15;;;;;;;93.05;32.22;;;2.90;99.90;;;;;;5054371;28;20566;-55
2021/12/27 12:12:41;;;;;;;93.75;29.73;;;3.00;99.90;;;;;;5058705;28;20052;-50
2021/12/27 12:15:08;;;;;;;94.43;33.47;;;3.00;99.90;;;;;;5047300;28;20033;-50
2021/12/27 12:17:40;;;;;;;102.20;34.70;;;3.00;99.90;;;;;;5062997;28;20082;-57
2021/12/27 12:20:25;;;;;;;101.05;32.85;;;3.00;99.90;;;;;;5052255;28;20044;-55
2021/12/27 12:23:05;;;;;;;87.25;32.30;;;3.00;99.90;;;;;;5044206;28;20044;-54
2021/12/27 12:25:31;;;;;;;89.80;31.80;;;2.90;99.90;;;;;;5054623;28;20037;-50
2021/12/27 12:28:09;;;;;;;119.50;36.28;;;2.90;99.90;;;;;;5019972;28;20052;-51
2021/12/27 12:30:38;;;;;;;149.75;40.30;;;2.90;99.90;;;;;;5053900;28;20052;-52
2021/12/27 12:33:14;;;;;;;124.60;36.15;;;2.90;99.90;;;;;;5019258;28;20775;-53
2021/12/27 12:35:54;;;;;;;138.60;39.75;;;2.90;99.90;;;;;;5049469;28;20449;-53
2021/12/27 12:38:35;;;;;;;90.88;31.92;;;2.90;99.90;;;;;;5037544;28;20536;-53
2021/12/27 12:41:09;;;;;;;153.35;39.00;;;2.90;99.90;;;;;;5040167;28;20035;-52
2021/12/27 12:43:57;;;;;;;136.68;37.92;;;2.90;99.90;;;;;;5048297;28;20048;-51
2021/12/27 12:46:36;;;;;;;125.55;37.08;;;3.00;99.90;;;;;;5057715;28;20051;-55
2021/12/27 12:49:05;;;;;;;113.47;36.53;;;3.00;99.90;;;;;;5043666;28;21130;-56
2021/12/27 12:51:40;;;;;;;102.10;31.88;;;3.00;99.90;;;;;;5034099;28;20037;-52